createdAt,value
2019-02-25T00:00:44.428Z,70.32
2019-02-25T00:01:30.273Z,70.28
2019-02-25T00:02:15.145Z,70.22
2019-02-25T00:02:51.408Z,70.15
2019-02-25T00:03:30.263Z,70.04
2019-02-25T00:04:09.800Z,69.76
2019-02-25T00:04:45.963Z,68.86
2019-02-25T00:05:22.223Z,67.61
2019-02-25T00:06:00.349Z,66.40
2019-02-25T00:06:36.936Z,65.57
2019-02-25T00:07:18.405Z,64.82
2019-02-25T00:07:55.479Z,64.21
2019-02-25T00:08:32.321Z,63.44
2019-02-25T00:09:10.594Z,62.87
2019-02-25T00:09:47.235Z,62.35
2019-02-25T00:10:24.356Z,60.87
2019-02-25T00:11:00.494Z,60.87
2019-02-25T00:11:37.753Z,60.69
2019-02-25T00:12:19.591Z,60.25
2019-02-25T00:12:59.310Z,59.49
2019-02-25T00:13:36.301Z,58.64
2019-02-25T00:14:12.599Z,58.64
2019-02-25T00:14:49.016Z,59.32
2019-02-25T00:15:25.679Z,59.32
2019-02-25T00:16:02.002Z,60.99
2019-02-25T00:16:38.570Z,60.99
2019-02-25T00:17:15.262Z,60.30
2019-02-25T00:17:53.304Z,60.62
2019-02-25T00:18:29.347Z,60.88
2019-02-25T00:19:06.271Z,61.74
2019-02-25T00:19:43.445Z,61.74
2019-02-25T00:20:19.448Z,61.52
2019-02-25T00:20:55.589Z,61.94
2019-02-25T00:21:32.925Z,61.94
2019-02-25T00:22:09.232Z,61.38
2019-02-25T00:22:45.886Z,61.38
2019-02-25T00:23:22.195Z,62.29
2019-02-25T00:23:59.045Z,62.29
2019-02-25T00:24:35.346Z,62.09
2019-02-25T00:25:12.128Z,62.62
2019-02-25T00:25:50.580Z,62.62
2019-02-25T00:26:27.535Z,61.87
2019-02-25T00:27:04.622Z,61.87
2019-02-25T00:27:41.647Z,62.44
2019-02-25T00:28:21.981Z,62.44
2019-02-25T00:28:59.971Z,62.55
2019-02-25T00:29:39.038Z,62.59
2019-02-25T00:30:15.324Z,62.83
2019-02-25T00:30:51.552Z,62.37
2019-02-25T00:31:28.371Z,62.01
2019-02-25T00:32:05.403Z,62.01
2019-02-25T00:32:42.414Z,62.37
2019-02-25T00:33:19.578Z,62.33
2019-02-25T00:33:56.801Z,62.29
2019-02-25T00:34:35.612Z,62.19
2019-02-25T00:35:13.355Z,62.08
2019-02-25T00:35:51.534Z,61.25
2019-02-25T00:36:27.596Z,61.25
2019-02-25T00:37:04.963Z,61.63
2019-02-25T00:37:44.602Z,61.05
2019-02-25T00:38:21.966Z,61.05
2019-02-25T00:38:58.961Z,61.37
2019-02-25T00:39:35.704Z,61.35
2019-02-25T00:40:12.734Z,60.95
2019-02-25T00:40:51.563Z,61.25
2019-02-25T00:41:28.350Z,61.23
2019-02-25T00:42:07.796Z,60.54
2019-02-25T00:42:44.281Z,60.54
2019-02-25T00:43:20.849Z,60.75
2019-02-25T00:43:57.190Z,60.30
2019-02-25T00:44:34.008Z,60.30
2019-02-25T00:45:10.779Z,60.37
2019-02-25T00:45:46.909Z,60.17
2019-02-25T00:46:23.077Z,60.17
2019-02-25T00:46:59.603Z,59.28
2019-02-25T00:47:37.508Z,59.63
2019-02-25T00:48:13.696Z,59.63
2019-02-25T00:48:50.291Z,59.36
2019-02-25T00:49:27.248Z,59.36
2019-02-25T00:50:14.327Z,59.06
2019-02-25T00:50:50.889Z,59.06
2019-02-25T00:51:30.115Z,58.48
2019-02-25T00:52:09.042Z,58.42
2019-02-25T00:52:54.928Z,58.42
2019-02-25T00:53:34.215Z,58.43
2019-02-25T00:54:13.410Z,58.39
2019-02-25T00:54:49.665Z,58.40
2019-02-25T00:55:25.923Z,58.40
2019-02-25T00:56:02.155Z,57.53
2019-02-25T00:56:38.936Z,57.53
2019-02-25T00:57:18.213Z,57.08
2019-02-25T00:57:55.080Z,57.31
2019-02-25T00:58:31.243Z,55.77
2019-02-25T00:59:08.674Z,55.77
2019-02-25T00:59:46.039Z,56.11
2019-02-25T01:00:22.722Z,55.34
2019-02-25T01:00:59.782Z,55.34
2019-02-25T01:01:36.701Z,55.01
2019-02-25T01:02:13.258Z,55.01
2019-02-25T01:02:50.872Z,54.18
2019-02-25T01:03:28.757Z,54.18
2019-02-25T01:04:05.094Z,53.28
2019-02-25T01:04:41.667Z,53.28
2019-02-25T01:05:18.545Z,53.59
2019-02-25T01:05:54.833Z,53.50
2019-02-25T01:06:33.002Z,53.50
2019-02-25T01:07:09.497Z,52.69
2019-02-25T01:07:47.933Z,52.69
2019-02-25T01:08:24.246Z,53.32
2019-02-25T01:09:04.211Z,53.32
2019-02-25T01:09:40.793Z,53.21
2019-02-25T01:10:18.140Z,53.22
2019-02-25T01:10:54.607Z,53.06
2019-02-25T01:11:31.474Z,52.96
2019-02-25T01:12:09.833Z,52.65
2019-02-25T01:12:57.308Z,52.50
2019-02-25T01:13:34.428Z,52.45
2019-02-25T01:14:12.199Z,52.28
2019-02-25T01:14:48.963Z,52.02
2019-02-25T01:15:25.278Z,51.88
2019-02-25T01:16:02.449Z,51.72
2019-02-25T01:16:41.586Z,51.26
2019-02-25T01:17:17.950Z,51.00
2019-02-25T01:17:54.098Z,50.97
2019-02-25T01:18:30.976Z,50.99
2019-02-25T01:19:07.153Z,50.90
2019-02-25T01:19:43.361Z,50.69
2019-02-25T01:20:19.514Z,50.42
2019-02-25T01:20:55.767Z,50.25
2019-02-25T01:21:32.030Z,50.13
2019-02-25T01:22:09.052Z,49.81
2019-02-25T01:22:45.403Z,49.63
2019-02-25T01:23:21.866Z,49.58
2019-02-25T01:24:02.585Z,49.55
2019-02-25T01:24:40.068Z,49.40
2019-02-25T01:25:17.789Z,49.33
2019-02-25T01:25:57.221Z,49.24
2019-02-25T01:26:34.413Z,49.34
2019-02-25T01:27:11.683Z,49.27
2019-02-25T01:27:51.834Z,49.27
2019-02-25T01:28:28.904Z,49.36
2019-02-25T01:29:07.130Z,49.30
2019-02-25T01:29:45.614Z,49.36
2019-02-25T01:30:22.059Z,49.31
2019-02-25T01:30:58.304Z,49.22
2019-02-25T01:31:35.596Z,49.11
2019-02-25T01:32:12.213Z,49.09
2019-02-25T01:32:48.614Z,49.04
2019-02-25T01:33:25.029Z,48.87
2019-02-25T01:34:01.948Z,48.80
2019-02-25T01:34:38.094Z,48.76
2019-02-25T01:35:14.826Z,48.71
2019-02-25T01:35:52.355Z,48.48
2019-02-25T01:36:30.270Z,48.23
2019-02-25T01:37:06.582Z,48.16
2019-02-25T01:37:44.757Z,48.07
2019-02-25T01:38:21.797Z,48.11
2019-02-25T01:38:58.078Z,48.14
2019-02-25T01:39:34.428Z,48.09
2019-02-25T01:40:12.242Z,48.08
2019-02-25T01:40:49.068Z,47.96
2019-02-25T01:41:25.218Z,47.82
2019-02-25T01:42:02.098Z,47.76
2019-02-25T01:42:38.437Z,47.70
2019-02-25T01:43:15.278Z,47.67
2019-02-25T01:43:52.940Z,47.59
2019-02-25T01:44:30.583Z,47.30
2019-02-25T01:45:07.690Z,46.85
2019-02-25T01:45:44.570Z,46.85
2019-02-25T01:46:22.681Z,46.88
2019-02-25T01:46:58.971Z,46.96
2019-02-25T01:47:35.961Z,46.99
2019-02-25T01:48:12.589Z,46.96
2019-02-25T01:48:54.993Z,46.99
2019-02-25T01:49:31.240Z,47.11
2019-02-25T01:50:12.442Z,47.24
2019-02-25T01:50:52.365Z,46.99
2019-02-25T01:51:47.110Z,46.89
2019-02-25T01:52:23.969Z,46.92
2019-02-25T01:53:00.144Z,46.78
2019-02-25T01:53:36.642Z,46.73
2019-02-25T01:54:12.848Z,46.75
2019-02-25T01:54:49.119Z,46.78
2019-02-25T01:55:25.578Z,46.85
2019-02-25T01:56:04.788Z,46.77
2019-02-25T01:56:42.027Z,46.60
2019-02-25T01:57:18.357Z,46.51
2019-02-25T01:57:55.024Z,46.49
2019-02-25T01:58:31.199Z,46.55
2019-02-25T01:59:07.287Z,46.69
2019-02-25T01:59:43.424Z,46.81
2019-02-25T02:00:19.634Z,46.86
2019-02-25T02:00:55.755Z,46.57
2019-02-25T02:01:31.886Z,46.51
2019-02-25T02:02:08.139Z,46.54
2019-02-25T02:02:44.247Z,46.58
2019-02-25T02:03:20.443Z,46.76
2019-02-25T02:03:56.658Z,46.61
2019-02-25T02:04:32.967Z,46.57
2019-02-25T02:05:09.367Z,46.55
2019-02-25T02:05:45.545Z,46.39
2019-02-25T02:06:21.663Z,46.16
2019-02-25T02:06:57.710Z,46.00
2019-02-25T02:07:33.830Z,45.92
2019-02-25T02:08:09.998Z,45.88
2019-02-25T02:08:46.431Z,45.79
2019-02-25T02:09:22.456Z,45.71
2019-02-25T02:09:58.634Z,45.73
2019-02-25T02:10:34.764Z,45.73
2019-02-25T02:11:12.147Z,45.57
2019-02-25T02:11:48.448Z,45.44
2019-02-25T02:12:25.377Z,45.41
2019-02-25T02:13:01.501Z,45.38
2019-02-25T02:13:37.634Z,45.32
2019-02-25T02:14:14.055Z,45.36
2019-02-25T02:14:50.599Z,45.42
2019-02-25T02:15:27.290Z,45.44
2019-02-25T02:16:04.043Z,45.43
2019-02-25T02:16:40.415Z,45.46
2019-02-25T02:17:17.120Z,45.40
2019-02-25T02:17:53.186Z,45.31
2019-02-25T02:18:29.389Z,45.39
2019-02-25T02:19:06.415Z,45.48
2019-02-25T02:19:42.569Z,45.51
2019-02-25T02:20:19.686Z,45.47
2019-02-25T02:20:55.986Z,45.33
2019-02-25T02:21:33.058Z,45.44
2019-02-25T02:22:10.082Z,45.40
2019-02-25T02:22:46.497Z,45.33
2019-02-25T02:23:22.583Z,45.32
2019-02-25T02:23:58.841Z,45.30
2019-02-25T02:24:35.212Z,45.24
2019-02-25T02:25:11.531Z,45.40
2019-02-25T02:25:47.646Z,45.53
2019-02-25T02:26:24.647Z,45.65
2019-02-25T02:27:01.603Z,45.54
2019-02-25T02:27:38.146Z,45.44
2019-02-25T02:28:14.231Z,45.42
2019-02-25T02:28:50.827Z,45.62
2019-02-25T02:29:26.915Z,45.64
2019-02-25T02:30:04.091Z,45.70
2019-02-25T02:30:40.307Z,45.65
2019-02-25T02:31:17.111Z,45.53
2019-02-25T02:31:54.017Z,45.54
2019-02-25T02:32:30.196Z,45.54
2019-02-25T02:33:06.453Z,45.50
2019-02-25T02:33:43.424Z,45.49
2019-02-25T02:34:19.599Z,45.48
2019-02-25T02:34:56.419Z,45.43
2019-02-25T02:35:32.583Z,45.40
2019-02-25T02:36:11.535Z,45.40
2019-02-25T02:36:47.289Z,45.42
2019-02-25T02:37:23.475Z,45.63
2019-02-25T02:37:59.754Z,45.55
2019-02-25T02:38:36.762Z,45.58
2019-02-25T02:39:13.726Z,45.66
2019-02-25T02:39:49.864Z,45.74
2019-02-25T02:40:26.744Z,45.86
2019-02-25T02:41:02.993Z,46.03
2019-02-25T02:42:13.550Z,46.03
2019-02-25T02:42:52.398Z,46.01
2019-02-25T02:43:28.818Z,46.01
2019-02-25T02:44:05.879Z,45.94
2019-02-25T02:44:42.215Z,45.78
2019-02-25T02:45:22.430Z,45.64
2019-02-25T02:46:03.543Z,45.55
2019-02-25T02:47:14.335Z,45.56
2019-02-25T02:48:05.503Z,45.50
2019-02-25T02:48:51.556Z,45.42
2019-02-25T02:49:28.424Z,45.46
2019-02-25T02:50:04.662Z,45.41
2019-02-25T02:50:41.107Z,45.31
2019-02-25T02:51:18.090Z,45.10
2019-02-25T02:51:54.864Z,45.05
2019-02-25T02:52:31.187Z,45.14
2019-02-25T02:53:07.662Z,45.37
2019-02-25T02:53:44.021Z,45.42
2019-02-25T02:54:20.127Z,45.44
2019-02-25T02:54:57.046Z,45.34
2019-02-25T02:55:34.182Z,45.25
2019-02-25T02:56:10.717Z,45.23
2019-02-25T02:56:47.534Z,45.08
2019-02-25T02:57:23.831Z,45.10
2019-02-25T02:58:00.493Z,45.11
2019-02-25T02:58:37.392Z,45.18
2019-02-25T02:59:14.410Z,45.36
2019-02-25T02:59:50.814Z,45.58
2019-02-25T03:00:27.505Z,45.48
2019-02-25T03:01:04.367Z,45.29
2019-02-25T03:01:40.623Z,45.30
2019-02-25T03:02:16.664Z,45.33
2019-02-25T03:02:52.792Z,45.44
2019-02-25T03:03:29.532Z,45.74
2019-02-25T03:04:06.341Z,45.67
2019-02-25T03:04:42.440Z,45.59
2019-02-25T03:05:19.555Z,45.62
2019-02-25T03:05:55.910Z,45.74
2019-02-25T03:06:32.066Z,45.83
2019-02-25T03:07:08.766Z,45.72
2019-02-25T03:07:45.602Z,45.54
2019-02-25T03:08:22.328Z,45.47
2019-02-25T03:08:58.457Z,45.55
2019-02-25T03:09:34.786Z,45.58
2019-02-25T03:10:12.222Z,45.63
2019-02-25T03:10:48.409Z,45.67
2019-02-25T03:11:24.588Z,45.72
2019-02-25T03:12:01.319Z,45.73
2019-02-25T03:12:37.768Z,45.70
2019-02-25T03:13:14.088Z,45.85
2019-02-25T03:13:50.609Z,45.77
2019-02-25T03:14:26.906Z,45.73
2019-02-25T03:15:03.162Z,45.65
2019-02-25T03:15:39.685Z,45.58
2019-02-25T03:16:16.024Z,45.54
2019-02-25T03:16:52.546Z,45.52
2019-02-25T03:17:29.501Z,45.69
2019-02-25T03:18:05.949Z,46.07
2019-02-25T03:18:42.286Z,46.00
2019-02-25T03:19:18.729Z,46.08
2019-02-25T03:19:55.069Z,45.99
2019-02-25T03:20:31.608Z,45.95
2019-02-25T03:21:08.345Z,45.91
2019-02-25T03:21:44.539Z,45.88
2019-02-25T03:22:21.633Z,45.86
2019-02-25T03:22:57.763Z,45.81
2019-02-25T03:23:33.806Z,45.75
2019-02-25T03:24:10.087Z,45.93
2019-02-25T03:24:47.132Z,46.63
2019-02-25T03:25:23.476Z,46.64
2019-02-25T03:26:00.282Z,46.67
2019-02-25T03:26:36.679Z,46.76
2019-02-25T03:27:13.426Z,46.94
2019-02-25T03:27:49.461Z,47.00
2019-02-25T03:28:25.706Z,46.92
2019-02-25T03:29:02.924Z,46.82
2019-02-25T03:29:39.190Z,46.63
2019-02-25T03:30:17.624Z,46.40
2019-02-25T03:30:54.394Z,46.31
2019-02-25T03:31:30.709Z,46.24
2019-02-25T03:32:07.268Z,46.10
2019-02-25T03:32:43.765Z,45.94
2019-02-25T03:33:20.490Z,45.98
2019-02-25T03:33:56.766Z,45.99
2019-02-25T03:34:33.608Z,46.00
2019-02-25T03:35:10.495Z,46.00
2019-02-25T03:35:46.891Z,45.95
2019-02-25T03:36:22.978Z,45.80
2019-02-25T03:36:59.237Z,45.68
2019-02-25T03:37:35.471Z,45.64
2019-02-25T03:38:12.299Z,45.65
2019-02-25T03:38:48.661Z,45.67
2019-02-25T03:39:24.784Z,45.67
2019-02-25T03:40:01.626Z,45.74
2019-02-25T03:40:38.643Z,45.57
2019-02-25T03:41:14.786Z,45.40
2019-02-25T03:41:51.449Z,45.39
2019-02-25T03:42:27.576Z,45.16
2019-02-25T03:43:04.118Z,45.01
2019-02-25T03:43:40.104Z,44.89
2019-02-25T03:44:16.171Z,44.74
2019-02-25T03:44:52.266Z,44.72
2019-02-25T03:45:28.516Z,44.61
2019-02-25T03:46:05.305Z,44.38
2019-02-25T03:46:41.860Z,44.45
2019-02-25T03:47:18.821Z,44.50
2019-02-25T03:47:55.362Z,44.55
2019-02-25T03:48:32.150Z,44.52
2019-02-25T03:49:08.373Z,44.75
2019-02-25T03:49:44.849Z,45.38
2019-02-25T03:50:21.481Z,45.25
2019-02-25T03:50:58.326Z,45.10
2019-02-25T03:51:34.767Z,44.85
2019-02-25T03:52:11.798Z,44.73
2019-02-25T03:52:48.245Z,44.68
2019-02-25T03:53:24.584Z,44.54
2019-02-25T03:54:01.298Z,44.44
2019-02-25T03:54:37.976Z,44.18
2019-02-25T03:55:16.265Z,44.29
2019-02-25T03:55:53.379Z,44.44
2019-02-25T03:56:29.795Z,44.58
2019-02-25T03:57:06.441Z,44.56
2019-02-25T03:57:42.596Z,44.49
2019-02-25T03:58:18.781Z,44.28
2019-02-25T03:58:54.921Z,44.13
2019-02-25T03:59:31.250Z,43.99
2019-02-25T04:00:09.462Z,43.80
2019-02-25T04:00:46.082Z,43.73
2019-02-25T04:01:23.408Z,43.75
2019-02-25T04:02:00.373Z,43.74
2019-02-25T04:02:36.605Z,43.85
2019-02-25T04:03:12.785Z,43.86
2019-02-25T04:03:49.253Z,43.90
2019-02-25T04:04:25.796Z,44.05
2019-02-25T04:05:02.821Z,44.70
2019-02-25T04:05:39.393Z,44.67
2019-02-25T04:06:15.534Z,44.72
2019-02-25T04:06:51.653Z,44.76
2019-02-25T04:07:28.569Z,44.95
2019-02-25T04:08:05.102Z,44.89
2019-02-25T04:08:41.888Z,45.14
2019-02-25T04:09:18.325Z,45.07
2019-02-25T04:09:54.673Z,44.76
2019-02-25T04:10:30.897Z,44.53
2019-02-25T04:11:07.227Z,44.49
2019-02-25T04:11:43.880Z,44.41
2019-02-25T04:12:20.015Z,44.46
2019-02-25T04:12:56.146Z,44.29
2019-02-25T04:13:32.419Z,44.24
2019-02-25T04:14:08.754Z,44.37
2019-02-25T04:14:44.991Z,44.84
2019-02-25T04:15:24.335Z,44.94
2019-02-25T04:16:00.597Z,44.64
2019-02-25T04:16:36.874Z,44.36
2019-02-25T04:17:13.033Z,44.35
2019-02-25T04:17:49.231Z,44.28
2019-02-25T04:18:25.487Z,44.23
2019-02-25T04:19:01.506Z,44.15
2019-02-25T04:19:37.530Z,44.07
2019-02-25T04:20:15.192Z,44.18
2019-02-25T04:20:51.519Z,44.17
2019-02-25T04:21:27.809Z,43.99
2019-02-25T04:22:03.912Z,44.00
2019-02-25T04:22:40.151Z,44.34
2019-02-25T04:23:16.438Z,44.12
2019-02-25T04:23:52.580Z,43.76
2019-02-25T04:24:28.891Z,43.61
2019-02-25T04:25:05.049Z,43.53
2019-02-25T04:25:41.392Z,43.71
2019-02-25T04:26:17.669Z,44.07
2019-02-25T04:26:55.600Z,44.20
2019-02-25T04:27:31.552Z,44.26
2019-02-25T04:28:07.897Z,43.95
2019-02-25T04:28:44.062Z,43.62
2019-02-25T04:29:20.192Z,43.37
2019-02-25T04:29:56.362Z,42.91
2019-02-25T04:30:32.573Z,42.70
2019-02-25T04:31:08.685Z,42.67
2019-02-25T04:31:44.730Z,42.65
2019-02-25T04:32:21.769Z,42.82
2019-02-25T04:32:58.234Z,42.65
2019-02-25T04:33:34.531Z,42.08
2019-02-25T04:34:10.800Z,41.98
2019-02-25T04:34:47.051Z,42.11
2019-02-25T04:35:23.283Z,42.52
2019-02-25T04:35:59.295Z,42.78
2019-02-25T04:36:35.518Z,42.66
2019-02-25T04:37:11.855Z,42.42
2019-02-25T04:37:47.938Z,41.94
2019-02-25T04:38:24.150Z,41.72
2019-02-25T04:39:00.431Z,41.68
2019-02-25T04:39:36.747Z,41.65
2019-02-25T04:40:13.970Z,41.30
2019-02-25T04:40:50.358Z,41.06
2019-02-25T04:41:26.588Z,41.11
2019-02-25T04:42:02.809Z,41.16
2019-02-25T04:42:39.027Z,41.33
2019-02-25T04:43:15.240Z,41.83
2019-02-25T04:43:51.527Z,42.49
2019-02-25T04:44:27.857Z,42.43
2019-02-25T04:45:04.108Z,42.18
2019-02-25T04:45:40.458Z,42.02
2019-02-25T04:46:16.527Z,41.79
2019-02-25T04:46:52.539Z,41.55
2019-02-25T04:47:28.840Z,41.26
2019-02-25T04:48:05.107Z,41.41
2019-02-25T04:48:41.394Z,41.64
2019-02-25T04:49:17.676Z,41.69
2019-02-25T04:49:53.894Z,41.80
2019-02-25T04:50:30.081Z,41.90
2019-02-25T04:51:06.422Z,41.77
2019-02-25T04:51:42.533Z,41.27
2019-02-25T04:52:18.790Z,40.60
2019-02-25T04:52:54.902Z,40.53
2019-02-25T04:53:31.002Z,40.95
2019-02-25T04:54:07.173Z,41.18
2019-02-25T04:54:43.274Z,41.06
2019-02-25T04:55:19.584Z,41.08
2019-02-25T04:55:55.899Z,41.23
2019-02-25T04:56:32.067Z,41.11
2019-02-25T04:57:08.308Z,40.39
2019-02-25T04:57:44.586Z,39.62
2019-02-25T04:58:20.735Z,39.54
2019-02-25T04:58:56.855Z,39.06
2019-02-25T04:59:33.011Z,39.12
2019-02-25T05:00:13.432Z,39.00
2019-02-25T05:00:49.568Z,39.03
2019-02-25T05:01:25.831Z,39.10
2019-02-25T05:02:02.383Z,39.07
2019-02-25T05:02:38.728Z,39.01
2019-02-25T05:03:15.001Z,38.49
2019-02-25T05:03:51.268Z,38.58
2019-02-25T05:04:27.290Z,37.89
2019-02-25T05:05:03.540Z,36.31
2019-02-25T05:05:39.681Z,35.74
2019-02-25T05:06:15.873Z,35.94
2019-02-25T05:06:51.983Z,35.92
2019-02-25T05:07:28.266Z,35.74
2019-02-25T05:08:04.427Z,35.54
2019-02-25T05:08:40.703Z,35.48
2019-02-25T05:09:17.014Z,35.46
2019-02-25T05:09:53.285Z,35.49
2019-02-25T05:10:29.522Z,35.34
2019-02-25T05:11:05.588Z,35.13
2019-02-25T05:11:41.870Z,35.08
2019-02-25T05:12:17.939Z,35.44
2019-02-25T05:12:59.113Z,35.42
2019-02-25T05:13:35.365Z,35.67
2019-02-25T05:14:11.467Z,35.46
2019-02-25T05:14:47.514Z,35.09
2019-02-25T05:15:24.907Z,34.63
2019-02-25T05:16:01.107Z,33.80
2019-02-25T05:16:37.227Z,32.81
2019-02-25T05:17:13.444Z,32.86
2019-02-25T05:17:49.686Z,33.11
2019-02-25T05:18:25.880Z,33.24
2019-02-25T05:19:01.966Z,33.09
2019-02-25T05:19:38.154Z,33.16
2019-02-25T05:20:14.412Z,33.00
2019-02-25T05:20:50.702Z,32.79
2019-02-25T05:21:26.953Z,31.95
2019-02-25T05:22:03.112Z,31.57
2019-02-25T05:22:39.382Z,31.54
2019-02-25T05:23:15.666Z,32.08
2019-02-25T05:23:51.848Z,32.21
2019-02-25T05:24:28.035Z,32.37
2019-02-25T05:25:04.213Z,32.11
2019-02-25T05:25:40.447Z,32.13
2019-02-25T05:26:16.707Z,32.19
2019-02-25T05:26:52.912Z,32.20
2019-02-25T05:27:29.095Z,32.12
2019-02-25T05:28:05.164Z,32.20
2019-02-25T05:28:41.438Z,32.48
2019-02-25T05:29:17.499Z,32.32
2019-02-25T05:29:53.673Z,32.06
2019-02-25T05:30:29.779Z,31.81
2019-02-25T05:31:06.086Z,30.46
2019-02-25T05:31:42.264Z,30.02
2019-02-25T05:32:18.482Z,29.86
2019-02-25T05:32:54.691Z,29.80
2019-02-25T05:33:30.952Z,29.81
2019-02-25T05:34:07.084Z,29.79
2019-02-25T05:34:43.298Z,29.87
2019-02-25T05:35:19.427Z,29.91
2019-02-25T05:35:55.540Z,29.87
2019-02-25T05:36:31.825Z,29.90
2019-02-25T05:37:08.102Z,30.02
2019-02-25T05:37:44.250Z,30.24
2019-02-25T05:38:20.511Z,30.50
2019-02-25T05:38:58.681Z,30.74
2019-02-25T05:39:34.569Z,30.92
2019-02-25T05:40:13.555Z,30.94
2019-02-25T05:40:49.938Z,31.20
2019-02-25T05:41:26.186Z,31.40
2019-02-25T05:42:02.351Z,31.58
2019-02-25T05:42:38.535Z,31.70
2019-02-25T05:43:17.765Z,31.76
2019-02-25T05:43:54.021Z,31.85
2019-02-25T05:44:33.692Z,31.85
2019-02-25T05:45:10.107Z,31.81
2019-02-25T05:45:46.233Z,31.80
2019-02-25T05:46:22.489Z,31.66
2019-02-25T05:47:01.815Z,31.46
2019-02-25T05:47:38.145Z,31.33
2019-02-25T05:48:14.484Z,31.43
2019-02-25T05:48:57.001Z,31.27
2019-02-25T05:49:33.153Z,30.34
2019-02-25T05:50:14.822Z,30.07
2019-02-25T05:50:52.357Z,30.14
2019-02-25T05:51:28.585Z,30.01
2019-02-25T05:52:04.969Z,30.02
2019-02-25T05:52:41.243Z,30.11
2019-02-25T05:53:19.021Z,30.12
2019-02-25T05:53:56.437Z,30.06
2019-02-25T05:54:33.938Z,30.08
2019-02-25T05:55:15.602Z,30.36
2019-02-25T05:55:54.601Z,30.56
2019-02-25T05:57:14.480Z,30.35
2019-02-25T06:00:21.528Z,30.92
2019-02-25T06:01:15.354Z,31.71
2019-02-25T06:04:26.547Z,31.83
2019-02-25T06:05:03.808Z,32.21
2019-02-25T06:06:58.644Z,32.42
2019-02-25T06:07:53.757Z,32.52
2019-02-25T06:09:21.348Z,33.76
2019-02-25T06:10:37.375Z,33.33
2019-02-25T06:11:41.812Z,32.89
2019-02-25T06:14:13.174Z,32.01
2019-02-25T06:15:02.886Z,31.47
2019-02-25T06:16:31.001Z,31.64
2019-02-25T06:17:57.094Z,32.13
2019-02-25T06:20:11.168Z,33.50
2019-02-25T06:21:39.728Z,33.23
2019-02-25T06:22:17.813Z,33.34
2019-02-25T06:23:10.837Z,32.99
2019-02-25T06:24:31.551Z,32.82
2019-02-25T06:26:48.019Z,32.03
2019-02-25T06:27:32.087Z,31.78
2019-02-25T06:28:30.506Z,32.10
2019-02-25T06:30:26.000Z,32.31
2019-02-25T06:31:32.138Z,32.48
2019-02-25T06:33:28.812Z,32.38
2019-02-25T06:34:42.122Z,32.46
2019-02-25T06:36:31.501Z,32.15
2019-02-25T06:37:11.492Z,32.01
2019-02-25T06:39:15.224Z,31.67
2019-02-25T06:41:39.806Z,30.96
2019-02-25T06:42:44.355Z,30.29
2019-02-25T06:45:00.436Z,30.96
2019-02-25T06:46:09.576Z,32.47
2019-02-25T06:47:14.490Z,32.50
2019-02-25T06:48:06.133Z,32.53
2019-02-25T06:53:11.171Z,32.04
2019-02-25T06:55:25.189Z,32.49
2019-02-25T06:56:03.149Z,32.89
2019-02-25T06:59:46.464Z,33.21
2019-02-25T07:02:23.190Z,33.31
2019-02-25T07:03:21.155Z,31.82
2019-02-25T07:09:16.941Z,31.21
2019-02-25T07:10:38.671Z,30.99
2019-02-25T07:11:50.652Z,31.39
2019-02-25T07:12:48.623Z,31.54
2019-02-25T07:14:19.694Z,31.72
2019-02-25T07:15:28.021Z,32.16
2019-02-25T07:16:32.501Z,33.94
2019-02-25T07:17:36.946Z,31.21
2019-02-25T07:20:15.023Z,30.44
2019-02-25T07:21:28.495Z,30.68
2019-02-25T07:23:13.664Z,30.90
2019-02-25T07:24:10.002Z,30.25
2019-02-25T07:25:09.292Z,31.06
2019-02-25T07:27:45.199Z,31.58
2019-02-25T07:28:48.183Z,31.54
2019-02-25T07:29:49.937Z,31.93
2019-02-25T07:31:06.574Z,31.59
2019-02-25T07:32:36.268Z,30.62
2019-02-25T07:33:36.301Z,30.57
2019-02-25T07:34:51.666Z,30.99
2019-02-25T07:35:53.384Z,31.68
2019-02-25T07:38:24.072Z,32.61
2019-02-25T07:39:52.960Z,32.90
2019-02-25T07:41:02.248Z,33.07
2019-02-25T07:42:18.595Z,33.75
2019-02-25T07:44:29.383Z,36.80
2019-02-25T07:47:38.245Z,36.04
2019-02-25T07:48:32.859Z,37.53
2019-02-25T07:49:42.922Z,37.79
2019-02-25T07:50:33.716Z,38.18
2019-02-25T07:52:01.517Z,38.44
2019-02-25T07:53:17.462Z,38.78
2019-02-25T07:54:38.377Z,38.90
2019-02-25T07:57:26.640Z,37.82
2019-02-25T08:00:57.277Z,44.35
2019-02-25T08:03:01.453Z,45.33
2019-02-25T08:10:26.727Z,47.76
2019-02-25T08:14:35.202Z,48.54
2019-02-25T08:15:48.981Z,48.53
2019-02-25T08:25:04.409Z,49.48
2019-02-25T08:26:27.545Z,49.20
2019-02-25T08:30:38.399Z,49.66
2019-02-25T08:33:40.853Z,49.78
2019-02-25T08:34:47.180Z,49.75
2019-02-25T08:36:23.819Z,49.53
2019-02-25T08:38:09.823Z,49.34
2019-02-25T08:39:22.807Z,49.42
2019-02-25T08:40:56.501Z,49.06
2019-02-25T08:43:17.169Z,48.39
2019-02-25T08:44:29.818Z,48.38
2019-02-25T08:45:51.747Z,47.32
2019-02-25T08:47:03.734Z,47.82
2019-02-25T08:48:13.859Z,48.44
2019-02-25T08:48:57.767Z,48.23
2019-02-25T08:50:01.291Z,47.39
2019-02-25T08:50:41.415Z,47.18
2019-02-25T08:51:21.470Z,46.82
2019-02-25T08:52:02.156Z,46.52
2019-02-25T08:52:40.706Z,46.29
2019-02-25T08:53:21.726Z,47.09
2019-02-25T08:54:11.150Z,47.67
2019-02-25T08:55:38.507Z,47.46
2019-02-25T08:56:29.075Z,47.27
2019-02-25T08:57:30.387Z,48.07
2019-02-25T08:59:48.509Z,48.87
2019-02-25T09:01:35.901Z,50.10
2019-02-25T09:02:52.385Z,50.29
2019-02-25T09:03:47.068Z,50.32
2019-02-25T09:04:49.352Z,50.27
2019-02-25T09:05:38.507Z,50.28
2019-02-25T09:06:49.169Z,50.49
2019-02-25T09:08:07.556Z,50.35
2019-02-25T09:08:55.956Z,50.30
2019-02-25T09:09:33.270Z,49.99
2019-02-25T09:10:37.797Z,49.95
2019-02-25T09:13:34.932Z,50.60
2019-02-25T09:14:25.521Z,51.13
2019-02-25T09:16:56.362Z,51.48
2019-02-25T09:18:26.167Z,51.83
2019-02-25T09:19:50.033Z,51.91
2019-02-25T09:20:49.035Z,52.02
2019-02-25T09:23:57.201Z,52.10
2019-02-25T09:24:45.935Z,52.22
2019-02-25T09:26:12.014Z,52.14
2019-02-25T09:30:53.938Z,52.24
2019-02-25T09:32:27.061Z,52.16
2019-02-25T09:33:43.072Z,51.66
2019-02-25T09:34:47.035Z,51.43
2019-02-25T09:36:04.155Z,51.77
2019-02-25T09:37:14.095Z,51.71
2019-02-25T09:38:18.193Z,51.64
2019-02-25T09:41:04.931Z,51.43
2019-02-25T09:42:02.187Z,51.40
2019-02-25T09:42:41.181Z,51.61
2019-02-25T09:43:53.485Z,51.50
2019-02-25T09:45:22.431Z,51.45
2019-02-25T09:46:40.545Z,51.29
2019-02-25T09:47:36.632Z,51.22
2019-02-25T09:48:17.025Z,51.44
2019-02-25T09:49:30.887Z,51.81
2019-02-25T09:50:46.947Z,51.82
2019-02-25T09:51:55.939Z,51.89
2019-02-25T09:52:36.986Z,52.03
2019-02-25T09:55:34.861Z,51.69
2019-02-25T09:57:38.395Z,51.86
2019-02-25T09:58:34.543Z,51.73
2019-02-25T10:00:55.247Z,51.74
2019-02-25T10:01:32.962Z,51.60
2019-02-25T10:02:25.417Z,51.52
2019-02-25T10:03:25.992Z,51.47
2019-02-25T10:04:37.197Z,51.50
2019-02-25T10:05:57.593Z,51.59
2019-02-25T10:08:24.841Z,51.84
2019-02-25T10:09:05.645Z,51.91
2019-02-25T10:09:48.941Z,51.89
2019-02-25T10:12:39.379Z,51.77
2019-02-25T10:13:17.627Z,51.56
2019-02-25T10:16:18.833Z,51.73
2019-02-25T10:18:34.435Z,51.94
2019-02-25T10:19:42.032Z,52.06
2019-02-25T10:25:14.698Z,52.73
2019-02-25T10:25:58.515Z,52.97
2019-02-25T10:26:51.510Z,52.96
2019-02-25T10:28:29.947Z,52.92
2019-02-25T10:29:39.967Z,53.01
2019-02-25T10:30:52.539Z,53.31
2019-02-25T10:31:43.798Z,53.33
2019-02-25T10:33:17.325Z,53.33
2019-02-25T10:34:15.593Z,53.37
2019-02-25T10:35:29.631Z,53.44
2019-02-25T10:36:07.926Z,53.48
2019-02-25T10:37:41.216Z,53.69
2019-02-25T10:38:46.411Z,53.70
2019-02-25T10:40:15.543Z,53.73
2019-02-25T10:41:27.940Z,53.93
2019-02-25T10:42:04.777Z,54.00
2019-02-25T10:43:10.903Z,54.05
2019-02-25T10:43:52.202Z,54.06
2019-02-25T10:44:51.991Z,54.07
2019-02-25T10:45:41.229Z,54.08
2019-02-25T10:48:21.598Z,54.06
2019-02-25T10:49:11.538Z,54.05
2019-02-25T10:49:49.635Z,54.03
2019-02-25T10:50:55.811Z,54.03
2019-02-25T10:51:57.733Z,54.04
2019-02-25T10:52:53.064Z,54.02
2019-02-25T10:55:11.539Z,54.10
2019-02-25T10:56:55.846Z,54.15
2019-02-25T10:58:08.464Z,54.22
2019-02-25T11:02:17.392Z,54.52
2019-02-25T11:03:15.311Z,54.90
2019-02-25T11:04:05.848Z,54.99
2019-02-25T11:06:35.509Z,55.29
2019-02-25T11:07:57.335Z,55.56
2019-02-25T11:10:05.665Z,55.68
2019-02-25T11:11:54.877Z,55.77